createdAt,value
2024-03-23T00:02:01.346Z,9.97
2024-03-23T00:04:31.883Z,9.96
2024-03-23T00:07:02.361Z,9.94
2024-03-23T00:09:32.882Z,9.92
2024-03-23T00:12:03.447Z,9.91
2024-03-23T00:14:33.972Z,9.90
2024-03-23T00:17:04.370Z,9.87
2024-03-23T00:19:34.918Z,9.83
2024-03-23T00:22:05.360Z,9.81
2024-03-23T00:24:35.788Z,9.79
2024-03-23T00:27:06.233Z,9.76
2024-03-23T00:29:36.693Z,9.75
2024-03-23T00:32:07.167Z,9.75
2024-03-23T00:34:37.705Z,9.74
2024-03-23T00:37:08.132Z,9.75
2024-03-23T00:39:38.691Z,9.75
2024-03-23T00:42:09.085Z,9.74
2024-03-23T00:44:39.615Z,9.73
2024-03-23T00:47:10.525Z,9.72
2024-03-23T00:49:40.985Z,9.70
2024-03-23T00:52:11.518Z,9.69
2024-03-23T00:54:41.964Z,9.67
2024-03-23T00:57:12.984Z,9.64
2024-03-23T00:59:43.364Z,9.62
2024-03-23T01:02:13.858Z,9.59
2024-03-23T01:04:44.336Z,9.58
2024-03-23T01:07:14.783Z,9.55
2024-03-23T01:09:45.246Z,9.53
2024-03-23T01:12:15.729Z,9.53
2024-03-23T01:14:46.480Z,9.52
2024-03-23T01:17:17.074Z,9.52
2024-03-23T01:19:47.497Z,9.51
2024-03-23T01:22:18.023Z,9.50
2024-03-23T01:24:48.579Z,9.51
2024-03-23T01:27:19.267Z,9.50
2024-03-23T01:29:49.666Z,9.50
2024-03-23T01:32:20.382Z,9.50
2024-03-23T01:34:50.850Z,9.49
2024-03-23T01:37:21.360Z,9.49
2024-03-23T01:39:52.153Z,9.50
2024-03-23T01:42:22.928Z,9.51
2024-03-23T01:44:53.366Z,9.53
2024-03-23T01:47:24.085Z,9.53
2024-03-23T01:49:54.981Z,9.53
2024-03-23T01:52:25.573Z,9.53
2024-03-23T01:54:56.624Z,9.54
2024-03-23T01:57:27.469Z,9.54
2024-03-23T01:59:57.914Z,9.54
2024-03-23T02:02:27.907Z,9.56
2024-03-23T02:04:58.320Z,9.57
2024-03-23T02:07:29.347Z,9.59
2024-03-23T02:09:59.977Z,9.62
2024-03-23T02:12:30.408Z,9.62
2024-03-23T02:15:01.168Z,9.64
2024-03-23T02:17:34.124Z,9.64
2024-03-23T02:20:07.394Z,9.64
2024-03-23T02:22:41.857Z,9.66
2024-03-23T02:25:12.280Z,9.67
2024-03-23T02:27:42.641Z,9.67
2024-03-23T02:30:13.554Z,9.67
2024-03-23T02:32:44.135Z,9.68
2024-03-23T02:35:15.030Z,9.68
2024-03-23T02:37:45.490Z,9.68
2024-03-23T02:40:16.422Z,9.70
2024-03-23T02:42:47.143Z,9.70
2024-03-23T02:45:18.228Z,9.70
2024-03-23T02:47:52.858Z,9.72
2024-03-23T02:50:23.474Z,9.73
2024-03-23T02:52:53.966Z,9.73
2024-03-23T02:55:24.460Z,9.74
2024-03-23T02:57:54.974Z,9.73
2024-03-23T03:00:25.486Z,9.72
2024-03-23T03:02:56.637Z,9.70
2024-03-23T03:05:27.132Z,9.70
2024-03-23T03:07:57.608Z,9.70
2024-03-23T03:10:28.112Z,9.71
2024-03-23T03:12:58.650Z,9.72
2024-03-23T03:15:29.114Z,9.74
2024-03-23T03:18:00.102Z,9.75
2024-03-23T03:20:30.542Z,9.75
2024-03-23T03:23:00.974Z,9.75
2024-03-23T03:25:31.469Z,9.77
2024-03-23T03:28:02.911Z,9.77
2024-03-23T03:30:32.170Z,9.77
2024-03-23T03:33:02.713Z,9.77
2024-03-23T03:35:33.543Z,9.77
2024-03-23T03:38:03.965Z,9.77
2024-03-23T03:40:34.461Z,9.77
2024-03-23T03:43:05.181Z,9.79
2024-03-23T03:45:35.651Z,9.79
2024-03-23T03:48:06.946Z,9.78
2024-03-23T03:50:37.834Z,9.80
2024-03-23T03:53:08.562Z,9.80
2024-03-23T03:55:39.039Z,9.79
2024-03-23T03:58:09.889Z,9.80
2024-03-23T04:00:40.594Z,9.80
2024-03-23T04:03:11.037Z,9.80
2024-03-23T04:05:41.481Z,9.81
2024-03-23T04:08:11.976Z,9.83
2024-03-23T04:10:42.576Z,9.85
2024-03-23T04:13:13.026Z,9.85
2024-03-23T04:15:43.515Z,9.86
2024-03-23T04:18:14.030Z,9.88
2024-03-23T04:20:44.882Z,9.88
2024-03-23T04:23:15.373Z,9.88
2024-03-23T04:25:46.166Z,9.90
2024-03-23T04:28:17.115Z,9.91
2024-03-23T04:30:47.673Z,9.91
2024-03-23T04:33:18.162Z,9.91
2024-03-23T04:35:52.360Z,9.92
2024-03-23T04:38:22.821Z,9.95
2024-03-23T04:40:59.005Z,9.96
2024-03-23T04:43:30.088Z,9.96
2024-03-23T04:46:00.562Z,9.96
2024-03-23T04:48:31.095Z,9.96
2024-03-23T04:51:01.668Z,9.96
2024-03-23T04:53:32.094Z,9.96
2024-03-23T04:56:03.234Z,9.96
2024-03-23T04:58:33.700Z,9.95
2024-03-23T05:01:04.239Z,9.96
2024-03-23T05:03:34.724Z,9.95
2024-03-23T05:06:06.375Z,9.93
2024-03-23T05:08:36.807Z,9.93
2024-03-23T05:11:07.914Z,9.94
2024-03-23T05:13:38.643Z,9.94
2024-03-23T05:16:09.773Z,9.96
2024-03-23T05:18:40.298Z,9.97
2024-03-23T05:21:10.876Z,9.99
2024-03-23T05:23:41.632Z,10.00
2024-03-23T05:26:12.179Z,10.02
2024-03-23T05:28:42.974Z,10.04
2024-03-23T05:31:13.437Z,10.02
2024-03-23T05:33:43.944Z,10.01
2024-03-23T05:36:14.510Z,10.03
2024-03-23T05:38:45.090Z,10.04
2024-03-23T05:41:15.998Z,10.04
2024-03-23T05:43:47.008Z,10.05
2024-03-23T05:46:19.067Z,10.03
2024-03-23T05:48:49.672Z,10.02
2024-03-23T05:51:20.236Z,10.03
2024-03-23T05:53:51.780Z,10.03
2024-03-23T05:56:23.228Z,10.02
2024-03-23T05:58:52.400Z,10.01
2024-03-23T06:01:23.291Z,10.01
2024-03-23T06:03:53.774Z,10.01
2024-03-23T06:06:25.031Z,10.01
2024-03-23T06:08:55.447Z,10.01
2024-03-23T06:11:28.225Z,10.00
2024-03-23T06:13:59.104Z,9.98
2024-03-23T06:16:29.725Z,9.96
2024-03-23T06:19:00.341Z,9.95
2024-03-23T06:21:30.867Z,9.96
2024-03-23T06:24:01.590Z,9.98
2024-03-23T06:26:32.000Z,9.99
2024-03-23T06:29:02.729Z,9.99
2024-03-23T06:31:33.206Z,10.01
2024-03-23T06:34:03.704Z,10.00
2024-03-23T06:36:34.191Z,10.02
2024-03-23T06:39:04.816Z,10.02
2024-03-23T06:41:36.484Z,10.04
2024-03-23T06:44:07.119Z,10.05
2024-03-23T06:46:37.650Z,10.06
2024-03-23T06:49:08.164Z,10.03
2024-03-23T06:51:39.177Z,10.00
2024-03-23T06:54:10.170Z,10.01
2024-03-23T06:56:40.870Z,10.04
2024-03-23T06:59:11.372Z,10.06
2024-03-23T07:01:41.803Z,10.08
2024-03-23T07:04:12.385Z,10.10
2024-03-23T07:06:47.463Z,10.11
2024-03-23T07:09:17.911Z,10.12
2024-03-23T07:11:48.362Z,10.12
2024-03-23T07:14:19.138Z,10.12
2024-03-23T07:16:52.891Z,10.12
2024-03-23T07:19:25.716Z,10.10
2024-03-23T07:21:56.406Z,10.08
2024-03-23T07:24:27.012Z,10.07
2024-03-23T07:26:59.064Z,10.08
2024-03-23T07:29:29.613Z,10.09
2024-03-23T07:32:00.172Z,10.08
2024-03-23T07:34:30.675Z,10.06
2024-03-23T07:37:01.089Z,10.04
2024-03-23T07:39:33.894Z,10.01
2024-03-23T07:42:04.518Z,9.99
2024-03-23T07:44:35.034Z,9.98
2024-03-23T07:47:05.679Z,9.95
2024-03-23T07:49:36.639Z,9.93
2024-03-23T07:52:09.321Z,9.91
2024-03-23T07:54:39.856Z,9.92
2024-03-23T07:57:10.463Z,9.94
2024-03-23T07:59:40.965Z,9.96
2024-03-23T08:02:11.957Z,9.97
2024-03-23T08:04:42.433Z,10.00
2024-03-23T08:07:12.901Z,10.05
2024-03-23T08:09:43.398Z,10.12
2024-03-23T08:12:13.893Z,10.18
2024-03-23T08:14:45.331Z,10.27
2024-03-23T08:17:14.278Z,10.31
2024-03-23T08:19:44.765Z,10.31
2024-03-23T08:22:15.310Z,10.33
2024-03-23T08:24:45.747Z,10.35
2024-03-23T08:27:16.243Z,10.36
2024-03-23T08:29:48.939Z,10.37
2024-03-23T08:32:19.499Z,10.39
2024-03-23T08:34:49.928Z,10.44
2024-03-23T08:37:20.447Z,10.48
2024-03-23T08:39:53.062Z,10.51
2024-03-23T08:42:26.230Z,10.60
2024-03-23T08:44:57.913Z,10.79
2024-03-23T08:47:28.431Z,11.29
2024-03-23T08:49:59.755Z,11.89
2024-03-23T08:52:30.940Z,12.52
2024-03-23T08:55:04.573Z,13.01
2024-03-23T08:57:37.619Z,13.20
2024-03-23T09:00:10.042Z,13.33
2024-03-23T09:02:40.506Z,13.44
2024-03-23T09:05:13.156Z,13.50
2024-03-23T09:07:44.174Z,13.63
2024-03-23T09:10:15.218Z,13.77
2024-03-23T09:12:46.929Z,13.83
2024-03-23T09:15:17.824Z,13.86
2024-03-23T09:17:47.364Z,13.88
2024-03-23T09:20:18.016Z,13.86
2024-03-23T09:22:50.010Z,13.82
2024-03-23T09:25:20.607Z,13.79
2024-03-23T09:27:52.085Z,13.73
2024-03-23T09:30:22.811Z,13.67
2024-03-23T09:32:56.290Z,13.65
2024-03-23T09:35:26.806Z,13.59
2024-03-23T09:37:58.233Z,13.53
2024-03-23T09:40:28.746Z,13.54
2024-03-23T09:42:59.936Z,13.56
2024-03-23T09:45:32.399Z,13.57
2024-03-23T09:48:03.889Z,13.58
2024-03-23T09:50:34.375Z,13.58
2024-03-23T09:53:08.628Z,13.68
2024-03-23T09:55:40.304Z,13.91
2024-03-23T09:58:14.651Z,14.18
2024-03-23T10:00:46.245Z,14.39
2024-03-23T10:03:17.043Z,14.53
2024-03-23T10:05:48.707Z,14.65
2024-03-23T10:08:22.715Z,14.77
2024-03-23T10:10:53.176Z,14.85
2024-03-23T10:13:31.172Z,14.91
2024-03-23T10:16:02.336Z,15.06
2024-03-23T10:18:33.334Z,15.29
2024-03-23T10:21:13.078Z,15.50
2024-03-23T10:23:45.258Z,15.67
2024-03-23T10:26:23.579Z,15.73
2024-03-23T10:29:01.881Z,15.72
2024-03-23T10:31:33.510Z,15.78
2024-03-23T10:34:04.940Z,15.79
2024-03-23T10:36:36.350Z,15.86
2024-03-23T10:39:09.502Z,15.92
2024-03-23T10:41:42.091Z,15.99
2024-03-23T10:44:13.093Z,16.06
2024-03-23T10:46:43.725Z,16.08
2024-03-23T10:49:14.180Z,16.13
2024-03-23T10:51:44.756Z,16.26
2024-03-23T10:54:15.566Z,16.41
2024-03-23T10:56:47.284Z,16.58
2024-03-23T10:59:18.877Z,16.66
2024-03-23T11:02:04.200Z,16.75
2024-03-23T11:04:36.996Z,16.77
2024-03-23T11:07:34.191Z,16.82
2024-03-23T11:10:25.487Z,16.83
2024-03-23T11:12:56.303Z,16.84
2024-03-23T11:15:27.034Z,16.85
2024-03-23T11:18:22.057Z,16.86
2024-03-23T11:20:51.467Z,16.91
2024-03-23T11:23:32.777Z,17.03
2024-03-23T11:26:05.209Z,17.17
2024-03-23T11:28:35.871Z,17.15
2024-03-23T11:31:13.372Z,17.11
2024-03-23T11:33:44.133Z,17.15
2024-03-23T11:36:22.353Z,17.20
2024-03-23T11:38:52.959Z,17.26
2024-03-23T11:41:23.795Z,17.30
2024-03-23T11:43:55.750Z,17.31
2024-03-23T11:46:30.201Z,17.29
2024-03-23T11:49:01.136Z,17.28
2024-03-23T11:51:35.895Z,17.29
2024-03-23T11:54:12.650Z,17.29
2024-03-23T11:56:44.018Z,17.31
2024-03-23T11:59:32.033Z,17.37
2024-03-23T12:02:08.558Z,17.33
2024-03-23T12:04:41.032Z,17.26
2024-03-23T12:07:21.672Z,17.18
2024-03-23T12:10:08.282Z,17.11
2024-03-23T12:12:39.155Z,17.08
2024-03-23T12:15:13.751Z,17.09
2024-03-23T12:17:44.339Z,17.13
2024-03-23T12:20:15.051Z,17.12
2024-03-23T12:22:47.408Z,17.13
2024-03-23T12:25:19.041Z,17.12
2024-03-23T12:27:49.939Z,17.07
2024-03-23T12:30:20.784Z,17.02
2024-03-23T12:32:51.459Z,16.97
2024-03-23T12:35:23.657Z,16.94
2024-03-23T12:37:54.471Z,16.90
2024-03-23T12:40:27.921Z,16.83
2024-03-23T12:42:59.117Z,16.77
2024-03-23T12:45:29.901Z,16.70
2024-03-23T12:48:01.004Z,16.63
2024-03-23T12:50:30.137Z,16.57
2024-03-23T12:53:01.809Z,16.50
2024-03-23T12:55:34.263Z,16.44
2024-03-23T12:58:08.674Z,16.38
2024-03-23T13:00:39.878Z,16.35
2024-03-23T13:03:16.683Z,16.33
2024-03-23T13:05:55.198Z,16.29
2024-03-23T13:08:55.841Z,16.24
2024-03-23T13:11:26.864Z,16.24
2024-03-23T13:13:57.337Z,16.24
2024-03-23T13:16:29.304Z,16.26
2024-03-23T13:19:02.401Z,16.25
2024-03-23T13:21:32.962Z,16.24
2024-03-23T13:24:07.117Z,16.20
2024-03-23T13:26:47.305Z,16.17
2024-03-23T13:29:18.077Z,16.12
2024-03-23T13:31:49.321Z,16.09
2024-03-23T13:34:20.881Z,16.08
2024-03-23T13:36:49.931Z,16.07
2024-03-23T13:39:21.575Z,16.04
2024-03-23T13:41:58.992Z,16.01
2024-03-23T13:44:29.900Z,16.02
2024-03-23T13:47:05.145Z,16.04
2024-03-23T13:49:35.778Z,16.06
2024-03-23T13:52:08.249Z,16.07
2024-03-23T13:54:38.797Z,16.07
2024-03-23T13:57:11.754Z,16.07
2024-03-23T13:59:42.244Z,16.04
2024-03-23T14:02:15.706Z,15.98
2024-03-23T14:04:46.212Z,15.94
2024-03-23T14:07:18.248Z,15.92
2024-03-23T14:09:48.795Z,15.91
2024-03-23T14:12:19.907Z,15.89
2024-03-23T14:14:50.339Z,15.87
2024-03-23T14:17:20.834Z,15.82
2024-03-23T14:19:57.352Z,15.75
2024-03-23T14:22:31.187Z,15.71
2024-03-23T14:25:01.747Z,15.68
2024-03-23T14:27:33.297Z,15.62
2024-03-23T14:30:05.020Z,15.57
2024-03-23T14:32:37.069Z,15.55
2024-03-23T14:35:11.190Z,15.50
2024-03-23T14:37:44.434Z,15.47
2024-03-23T14:40:15.513Z,15.44
2024-03-23T14:42:45.959Z,15.44
2024-03-23T14:45:16.866Z,15.44
2024-03-23T14:47:47.312Z,15.41
2024-03-23T14:50:18.099Z,15.41
2024-03-23T14:52:49.518Z,15.39
2024-03-23T14:55:20.569Z,15.37
2024-03-23T14:57:52.765Z,15.36
2024-03-23T15:00:23.526Z,15.34
2024-03-23T15:02:54.492Z,15.33
2024-03-23T15:05:33.127Z,15.33
2024-03-23T15:08:04.377Z,15.30
2024-03-23T15:10:34.782Z,15.25
2024-03-23T15:13:05.597Z,15.11
2024-03-23T15:15:44.908Z,14.96
2024-03-23T15:18:17.143Z,14.80
2024-03-23T15:20:56.294Z,14.68
2024-03-23T15:23:27.677Z,14.57
2024-03-23T15:26:03.115Z,14.44
2024-03-23T15:28:42.555Z,14.29
2024-03-23T15:31:13.107Z,14.17
2024-03-23T15:33:49.523Z,14.08
2024-03-23T15:36:20.093Z,13.99
2024-03-23T15:38:51.088Z,13.92
2024-03-23T15:41:24.371Z,13.83
2024-03-23T15:43:55.622Z,13.72
2024-03-23T15:46:26.529Z,13.63
2024-03-23T15:48:57.027Z,13.52
2024-03-23T15:51:32.545Z,13.42
2024-03-23T15:54:04.138Z,13.29
2024-03-23T15:56:35.303Z,13.13
2024-03-23T15:59:08.966Z,12.96
2024-03-23T16:01:39.800Z,12.80
2024-03-23T16:04:10.377Z,12.64
2024-03-23T16:06:42.863Z,12.49
2024-03-23T16:09:13.481Z,12.38
2024-03-23T16:11:44.178Z,12.31
2024-03-23T16:14:15.471Z,12.23
2024-03-23T16:16:46.993Z,12.21
2024-03-23T16:19:18.415Z,12.21
2024-03-23T16:21:49.135Z,12.22
2024-03-23T16:24:19.755Z,12.24
2024-03-23T16:26:50.554Z,12.28
2024-03-23T16:29:21.424Z,12.31
2024-03-23T16:31:54.935Z,12.31
2024-03-23T16:34:25.535Z,12.35
2024-03-23T16:36:57.861Z,12.32
2024-03-23T16:39:30.013Z,12.32
2024-03-23T16:42:00.800Z,12.29
2024-03-23T16:44:35.342Z,12.28
2024-03-23T16:47:06.123Z,12.26
2024-03-23T16:49:36.614Z,12.23
2024-03-23T16:52:07.613Z,12.21
2024-03-23T16:54:38.196Z,12.18
2024-03-23T16:57:09.034Z,12.11
2024-03-23T16:59:39.576Z,12.07
2024-03-23T17:02:10.736Z,12.03
2024-03-23T17:04:41.644Z,11.98
2024-03-23T17:07:14.232Z,11.95
2024-03-23T17:09:50.895Z,11.93
2024-03-23T17:12:22.208Z,11.89
2024-03-23T17:14:55.477Z,11.86
2024-03-23T17:17:29.091Z,11.83
2024-03-23T17:20:04.714Z,11.81
2024-03-23T17:22:35.358Z,11.78
2024-03-23T17:25:08.960Z,11.75
2024-03-23T17:27:39.804Z,11.70
2024-03-23T17:30:12.868Z,11.66
2024-03-23T17:32:43.831Z,11.62
2024-03-23T17:35:15.822Z,11.60
2024-03-23T17:37:46.628Z,11.56
2024-03-23T17:40:17.143Z,11.54
2024-03-23T17:42:48.497Z,11.49
2024-03-23T17:45:20.849Z,11.47
2024-03-23T17:47:52.153Z,11.45
2024-03-23T17:50:22.907Z,11.45
2024-03-23T17:52:53.623Z,11.42
2024-03-23T17:55:24.609Z,11.42
2024-03-23T17:57:57.594Z,11.41
2024-03-23T18:00:28.810Z,11.41
2024-03-23T18:02:59.277Z,11.40
2024-03-23T18:05:29.910Z,11.39
2024-03-23T18:08:00.643Z,11.35
2024-03-23T18:10:31.303Z,11.32
2024-03-23T18:13:01.742Z,11.29
2024-03-23T18:15:50.004Z,11.26
2024-03-23T18:18:25.845Z,11.21
2024-03-23T18:20:56.949Z,11.16
2024-03-23T18:23:28.890Z,11.11
2024-03-23T18:26:00.121Z,11.05
2024-03-23T18:28:30.723Z,11.02
2024-03-23T18:31:01.851Z,11.00
2024-03-23T18:34:01.820Z,11.01
2024-03-23T18:36:35.664Z,11.03
2024-03-23T18:39:08.191Z,11.01
2024-03-23T18:41:38.836Z,10.99
2024-03-23T18:44:13.839Z,10.94
2024-03-23T18:46:47.426Z,10.84
2024-03-23T18:49:19.756Z,10.67
2024-03-23T18:51:50.417Z,10.52
2024-03-23T18:54:21.090Z,10.37
2024-03-23T18:56:52.165Z,10.23
2024-03-23T18:59:22.711Z,10.09
2024-03-23T19:01:54.211Z,9.90
2024-03-23T19:04:23.324Z,9.73
2024-03-23T19:06:53.795Z,9.60
2024-03-23T19:09:26.503Z,9.49
2024-03-23T19:11:57.607Z,9.39
2024-03-23T19:14:31.387Z,9.27
2024-03-23T19:17:03.104Z,9.14
2024-03-23T19:19:35.263Z,9.02
2024-03-23T19:22:06.099Z,8.84
2024-03-23T19:24:36.696Z,8.69
2024-03-23T19:27:07.459Z,8.60
2024-03-23T19:29:37.992Z,8.53
2024-03-23T19:32:08.968Z,8.47
2024-03-23T19:34:39.810Z,8.38
2024-03-23T19:37:10.352Z,8.30
2024-03-23T19:39:41.913Z,8.21
2024-03-23T19:42:12.940Z,8.15
2024-03-23T19:44:43.406Z,8.06
2024-03-23T19:47:14.141Z,7.98
2024-03-23T19:49:45.045Z,7.89
2024-03-23T19:52:15.637Z,7.81
2024-03-23T19:54:46.316Z,7.77
2024-03-23T19:57:16.963Z,7.72
2024-03-23T19:59:47.432Z,7.67
2024-03-23T20:02:17.999Z,7.62
2024-03-23T20:04:48.512Z,7.56
2024-03-23T20:07:19.323Z,7.49
2024-03-23T20:09:50.120Z,7.44
2024-03-23T20:12:20.660Z,7.38
2024-03-23T20:14:51.315Z,7.28
2024-03-23T20:17:24.110Z,7.23
2024-03-23T20:19:54.611Z,7.18
2024-03-23T20:22:26.083Z,7.09
2024-03-23T20:24:58.010Z,7.04
2024-03-23T20:27:28.897Z,7.02
2024-03-23T20:29:59.501Z,6.99
2024-03-23T20:32:30.136Z,6.98
2024-03-23T20:35:02.437Z,6.97
2024-03-23T20:37:32.993Z,6.99
2024-03-23T20:40:04.069Z,7.01
2024-03-23T20:42:34.549Z,7.02
2024-03-23T20:45:05.883Z,7.01
2024-03-23T20:47:39.802Z,7.01
2024-03-23T20:50:13.894Z,7.00
2024-03-23T20:52:47.097Z,6.97
2024-03-23T20:55:17.677Z,6.95
2024-03-23T20:57:48.742Z,6.92
2024-03-23T21:00:23.087Z,6.89
2024-03-23T21:02:53.685Z,6.85
2024-03-23T21:05:24.222Z,6.82
2024-03-23T21:07:54.736Z,6.78
2024-03-23T21:10:27.670Z,6.76
2024-03-23T21:12:58.723Z,6.74
2024-03-23T21:15:29.805Z,6.77
2024-03-23T21:18:00.859Z,6.77
2024-03-23T21:20:31.406Z,6.75
2024-03-23T21:23:03.010Z,6.75
2024-03-23T21:25:31.988Z,6.76
2024-03-23T21:28:02.717Z,6.76
2024-03-23T21:30:38.462Z,6.75
2024-03-23T21:33:09.939Z,6.76
2024-03-23T21:35:43.143Z,6.77
2024-03-23T21:38:13.653Z,6.79
2024-03-23T21:40:44.282Z,6.81
2024-03-23T21:43:14.895Z,6.81
2024-03-23T21:45:54.111Z,6.80
2024-03-23T21:48:24.758Z,6.79
2024-03-23T21:50:55.366Z,6.79
2024-03-23T21:53:25.870Z,6.81
2024-03-23T21:55:57.316Z,6.82
2024-03-23T21:58:28.796Z,6.82
2024-03-23T22:01:05.313Z,6.84
2024-03-23T22:03:35.993Z,6.87
2024-03-23T22:06:10.802Z,6.89
2024-03-23T22:08:41.285Z,6.90
2024-03-23T22:11:11.849Z,6.92
2024-03-23T22:13:43.698Z,6.95
2024-03-23T22:16:14.840Z,6.96
2024-03-23T22:18:45.454Z,6.93
2024-03-23T22:21:16.788Z,6.91
2024-03-23T22:23:50.471Z,6.90
2024-03-23T22:26:21.210Z,6.87
2024-03-23T22:28:51.868Z,6.86
2024-03-23T22:31:22.458Z,6.87
2024-03-23T22:33:53.107Z,6.87
2024-03-23T22:36:23.601Z,6.88
2024-03-23T22:38:54.198Z,6.89
2024-03-23T22:41:24.790Z,6.88
2024-03-23T22:43:55.343Z,6.88
2024-03-23T22:46:26.199Z,6.88
2024-03-23T22:48:57.245Z,6.86
2024-03-23T22:51:28.041Z,6.87
2024-03-23T22:54:01.039Z,6.88
2024-03-23T22:56:31.569Z,6.87
2024-03-23T22:59:02.042Z,6.88
2024-03-23T23:01:32.882Z,6.87
2024-03-23T23:04:03.560Z,6.85
2024-03-23T23:06:36.008Z,6.86
2024-03-23T23:09:07.735Z,6.84
2024-03-23T23:11:38.266Z,6.86
2024-03-23T23:14:09.420Z,6.85
2024-03-23T23:16:40.041Z,6.84
2024-03-23T23:19:12.325Z,6.84
2024-03-23T23:21:43.068Z,6.85
2024-03-23T23:24:13.777Z,6.84
2024-03-23T23:26:44.354Z,6.84
2024-03-23T23:29:15.009Z,6.84
2024-03-23T23:31:48.471Z,6.82
2024-03-23T23:34:19.447Z,6.81
2024-03-23T23:36:51.195Z,6.81
2024-03-23T23:39:21.846Z,6.81
2024-03-23T23:41:52.569Z,6.81
2024-03-23T23:44:23.730Z,6.79
2024-03-23T23:46:54.395Z,6.79
2024-03-23T23:49:25.137Z,6.77
2024-03-23T23:51:55.824Z,6.76
2024-03-23T23:54:27.211Z,6.72
2024-03-23T23:56:58.389Z,6.71
2024-03-23T23:59:29.229Z,6.68
